Orbital elements of FENGYUN 1C DEB
| Launched | 9 May 1999 |
| Flight ended | – |
| Launch site | Taiyuan Space Center, PRC |
| Owner | People's Republic of China |
| NORAD ID | 30246 |
| Date fetched |
Epoch osculation |
Inc. [°] |
Ecc. | RA asc node [hr] |
Arg Peri. [°] |
Mean anom [°] |
Mean motion [rev/day] |
Abs. mag |
| Date fetched |
Epoch osculation |
Inc. [°] |
Ecc. | RA asc node [hr] |
Arg Peri. [°] |
Mean anom [°] |
Mean motion [rev/day] |
Abs. mag |
| 2026 May 03 17:57 | 2026 Apr 30 14:52:10 | 98.6923 | 0.03713 | 16.6109 | 110.8384 | 273.6288 | 13.37108 | – |
| 2026 May 02 17:57 | 2026 Apr 30 14:52:10 | 98.6923 | 0.03713 | 16.6109 | 110.8384 | 273.6288 | 13.37108 | – |
| 2026 May 01 17:56 | 2026 Apr 30 14:52:10 | 98.6923 | 0.03713 | 16.6109 | 110.8384 | 273.6288 | 13.37108 | – |
| 2026 Apr 30 17:56 | 2026 Apr 30 14:52:10 | 98.6923 | 0.03713 | 16.6109 | 110.8384 | 273.6288 | 13.37108 | – |
| 2026 Apr 29 17:57 | 2026 Apr 24 06:26:09 | 98.6911 | 0.03713 | 16.2484 | 126.7352 | 273.6288 | 13.37108 | – |
| 2026 Apr 28 17:56 | 2026 Apr 24 06:26:09 | 98.6911 | 0.03713 | 16.2484 | 126.7352 | 273.6288 | 13.37108 | – |
| 2026 Apr 27 17:58 | 2026 Apr 24 06:26:09 | 98.6911 | 0.03713 | 16.2484 | 126.7352 | 273.6288 | 13.37108 | – |
| 2026 Apr 26 17:58 | 2026 Apr 24 06:26:09 | 98.6911 | 0.03713 | 16.2484 | 126.7352 | 273.6288 | 13.37108 | – |
| 2026 Apr 25 17:58 | 2026 Apr 24 06:26:09 | 98.6911 | 0.03713 | 16.2484 | 126.7352 | 273.6288 | 13.37108 | – |
| 2026 Apr 24 17:59 | 2026 Apr 24 06:26:09 | 98.6911 | 0.03713 | 16.2484 | 126.7352 | 273.6288 | 13.37108 | – |
| 2026 Apr 23 17:57 | 2026 Apr 19 03:04:35 | 98.6899 | 0.03712 | 15.9551 | 139.6008 | 273.6288 | 13.37108 | – |
| 2026 Apr 22 17:57 | 2026 Apr 19 03:04:35 | 98.6899 | 0.03712 | 15.9551 | 139.6008 | 273.6288 | 13.37108 | – |
| 2026 Apr 21 17:57 | 2026 Apr 19 03:04:35 | 98.6899 | 0.03712 | 15.9551 | 139.6008 | 273.6288 | 13.37108 | – |
| 2026 Apr 20 17:57 | 2026 Apr 19 03:04:35 | 98.6899 | 0.03712 | 15.9551 | 139.6008 | 273.6288 | 13.37108 | – |
| 2026 Apr 19 17:58 | 2026 Apr 19 03:04:35 | 98.6899 | 0.03712 | 15.9551 | 139.6008 | 273.6288 | 13.37108 | – |
| 2026 Apr 18 17:56 | 2026 Apr 13 03:23:45 | 98.6887 | 0.03711 | 15.6135 | 154.5876 | 273.6288 | 13.37108 | – |
| 2026 Apr 16 17:57 | 2026 Apr 13 03:23:45 | 98.6887 | 0.03711 | 15.6135 | 154.5876 | 273.6288 | 13.37108 | – |
| 2026 Apr 14 17:57 | 2026 Apr 13 03:23:45 | 98.6887 | 0.03711 | 15.6135 | 154.5876 | 273.6288 | 13.37108 | – |
| 2026 Apr 13 17:57 | 2026 Apr 13 03:23:45 | 98.6887 | 0.03711 | 15.6135 | 154.5876 | 273.6288 | 13.37108 | – |
| 2026 Apr 12 17:57 | 2026 Apr 07 21:24:56 | 98.6877 | 0.03709 | 15.3141 | 167.7382 | 273.6288 | 13.37108 | – |
| 2026 Apr 11 17:57 | 2026 Apr 07 21:24:56 | 98.6877 | 0.03709 | 15.3141 | 167.7382 | 273.6288 | 13.37108 | – |
| 2026 Apr 10 17:58 | 2026 Apr 07 21:24:56 | 98.6877 | 0.03709 | 15.3141 | 167.7382 | 273.6288 | 13.37108 | – |
| 2026 Apr 09 18:01 | 2026 Apr 07 21:24:56 | 98.6877 | 0.03709 | 15.3141 | 167.7382 | 273.6288 | 13.37108 | – |
| 2026 Apr 08 17:57 | 2026 Apr 07 21:24:56 | 98.6877 | 0.03709 | 15.3141 | 167.7382 | 273.6288 | 13.37108 | – |
| 2026 Apr 07 17:57 | 2026 Apr 02 03:24:52 | 98.6865 | 0.03707 | 14.9860 | 182.1501 | 273.6288 | 13.37108 | – |
| 2026 Apr 06 17:57 | 2026 Apr 02 03:24:52 | 98.6865 | 0.03707 | 14.9860 | 182.1501 | 273.6288 | 13.37108 | – |